sensor_id;sensor_type;location;lat;lon;timestamp;pressure;altitude;pressure_sealevel;temperature;humidity
35676;BME280;21790;42.668;23.298;2023-12-07T00:00:03;94326.03;;;11.72;54.15
35676;BME280;21790;42.668;23.298;2023-12-07T00:02:28;94340.34;;;11.71;54.18
35676;BME280;21790;42.668;23.298;2023-12-07T00:04:53;94334.03;;;11.70;54.24
35676;BME280;21790;42.668;23.298;2023-12-07T00:07:19;94344.75;;;11.78;53.98
35676;BME280;21790;42.668;23.298;2023-12-07T00:09:44;94347.88;;;11.85;53.70
35676;BME280;21790;42.668;23.298;2023-12-07T00:12:10;94348.56;;;11.80;53.85
35676;BME280;21790;42.668;23.298;2023-12-07T00:14:35;94339.97;;;11.78;53.88
35676;BME280;21790;42.668;23.298;2023-12-07T00:17:00;94342.00;;;11.78;53.87
35676;BME280;21790;42.668;23.298;2023-12-07T00:19:26;94338.03;;;11.84;53.58
35676;BME280;21790;42.668;23.298;2023-12-07T00:21:51;94339.69;;;11.76;53.58
35676;BME280;21790;42.668;23.298;2023-12-07T00:24:16;94343.09;;;11.71;53.74
35676;BME280;21790;42.668;23.298;2023-12-07T00:26:42;94339.84;;;11.72;53.91
35676;BME280;21790;42.668;23.298;2023-12-07T00:29:07;94341.38;;;11.73;54.00
35676;BME280;21790;42.668;23.298;2023-12-07T00:31:32;94340.69;;;11.64;54.09
35676;BME280;21790;42.668;23.298;2023-12-07T00:33:58;94338.50;;;11.53;54.31
35676;BME280;21790;42.668;23.298;2023-12-07T00:36:23;94342.59;;;11.58;54.13
35676;BME280;21790;42.668;23.298;2023-12-07T00:38:48;94342.34;;;11.56;54.28
35676;BME280;21790;42.668;23.298;2023-12-07T00:41:14;94346.34;;;11.55;54.43
35676;BME280;21790;42.668;23.298;2023-12-07T00:43:39;94345.19;;;11.61;54.08
35676;BME280;21790;42.668;23.298;2023-12-07T00:46:06;94343.56;;;11.55;54.30
35676;BME280;21790;42.668;23.298;2023-12-07T00:48:31;94336.03;;;11.55;54.45
35676;BME280;21790;42.668;23.298;2023-12-07T00:50:57;94333.72;;;11.54;54.37
35676;BME280;21790;42.668;23.298;2023-12-07T00:53:22;94332.59;;;11.60;54.32
35676;BME280;21790;42.668;23.298;2023-12-07T00:55:48;94336.00;;;11.41;54.76
35676;BME280;21790;42.668;23.298;2023-12-07T00:58:13;94328.66;;;11.52;54.53
35676;BME280;21790;42.668;23.298;2023-12-07T01:00:39;94336.88;;;11.47;54.74
35676;BME280;21790;42.668;23.298;2023-12-07T01:03:04;94325.72;;;11.56;54.34
35676;BME280;21790;42.668;23.298;2023-12-07T01:05:30;94331.06;;;11.59;54.24
35676;BME280;21790;42.668;23.298;2023-12-07T01:07:56;94325.81;;;11.61;54.03
35676;BME280;21790;42.668;23.298;2023-12-07T01:10:21;94333.25;;;11.70;54.08
35676;BME280;21790;42.668;23.298;2023-12-07T01:12:46;94326.56;;;11.62;54.27
35676;BME280;21790;42.668;23.298;2023-12-07T01:15:12;94324.88;;;11.50;54.71
35676;BME280;21790;42.668;23.298;2023-12-07T01:17:37;94325.53;;;11.45;54.90
35676;BME280;21790;42.668;23.298;2023-12-07T01:20:03;94328.88;;;11.63;54.45
35676;BME280;21790;42.668;23.298;2023-12-07T01:22:29;94331.28;;;11.56;54.51
35676;BME280;21790;42.668;23.298;2023-12-07T01:24:54;94332.41;;;11.64;54.30
35676;BME280;21790;42.668;23.298;2023-12-07T01:27:20;94326.09;;;11.63;54.34
35676;BME280;21790;42.668;23.298;2023-12-07T01:29:46;94322.97;;;11.70;54.12
35676;BME280;21790;42.668;23.298;2023-12-07T01:32:11;94318.00;;;11.74;54.12
35676;BME280;21790;42.668;23.298;2023-12-07T01:34:36;94329.56;;;11.73;53.79
35676;BME280;21790;42.668;23.298;2023-12-07T01:37:02;94323.38;;;11.78;54.11
35676;BME280;21790;42.668;23.298;2023-12-07T01:39:28;94311.81;;;11.80;53.81
35676;BME280;21790;42.668;23.298;2023-12-07T01:41:53;94325.19;;;11.81;53.72
35676;BME280;21790;42.668;23.298;2023-12-07T01:44:18;94316.00;;;11.75;53.85
35676;BME280;21790;42.668;23.298;2023-12-07T01:46:47;94316.25;;;11.62;54.27
35676;BME280;21790;42.668;23.298;2023-12-07T01:49:12;94321.13;;;11.67;54.30
35676;BME280;21790;42.668;23.298;2023-12-07T01:51:37;94322.28;;;11.61;54.48
35676;BME280;21790;42.668;23.298;2023-12-07T01:54:03;94321.91;;;11.68;54.45
35676;BME280;21790;42.668;23.298;2023-12-07T01:56:29;94316.56;;;11.64;54.60
35676;BME280;21790;42.668;23.298;2023-12-07T01:58:55;94318.00;;;11.60;54.59
35676;BME280;21790;42.668;23.298;2023-12-07T02:01:20;94315.69;;;11.44;54.87
35676;BME280;21790;42.668;23.298;2023-12-07T02:03:46;94318.84;;;11.37;55.25
35676;BME280;21790;42.668;23.298;2023-12-07T02:06:11;94319.19;;;11.29;55.35
35676;BME280;21790;42.668;23.298;2023-12-07T02:08:38;94310.91;;;11.29;55.55
35676;BME280;21790;42.668;23.298;2023-12-07T02:11:07;94315.69;;;11.29;55.59
35676;BME280;21790;42.668;23.298;2023-12-07T02:13:34;94313.41;;;11.42;55.27
35676;BME280;21790;42.668;23.298;2023-12-07T02:15:59;94309.81;;;11.51;54.92
35676;BME280;21790;42.668;23.298;2023-12-07T02:18:28;94311.81;;;11.50;54.94
35676;BME280;21790;42.668;23.298;2023-12-07T02:23:51;94303.28;;;11.68;54.55
35676;BME280;21790;42.668;23.298;2023-12-07T02:26:20;94309.31;;;11.67;54.26
35676;BME280;21790;42.668;23.298;2023-12-07T02:28:47;94301.22;;;11.78;54.14
35676;BME280;21790;42.668;23.298;2023-12-07T02:31:12;94312.00;;;11.61;54.47
35676;BME280;21790;42.668;23.298;2023-12-07T02:33:38;94299.56;;;11.57;54.65
35676;BME280;21790;42.668;23.298;2023-12-07T02:36:04;94303.69;;;11.61;54.49
35676;BME280;21790;42.668;23.298;2023-12-07T02:38:30;94302.25;;;11.66;54.29
35676;BME280;21790;42.668;23.298;2023-12-07T02:40:56;94306.06;;;11.68;54.27
35676;BME280;21790;42.668;23.298;2023-12-07T02:43:22;94306.47;;;11.61;54.49
35676;BME280;21790;42.668;23.298;2023-12-07T02:45:48;94305.50;;;11.64;54.43
35676;BME280;21790;42.668;23.298;2023-12-07T02:48:13;94294.94;;;11.78;54.20
35676;BME280;21790;42.668;23.298;2023-12-07T02:50:38;94296.03;;;11.86;54.12
35676;BME280;21790;42.668;23.298;2023-12-07T02:53:04;94295.09;;;11.74;54.33
35676;BME280;21790;42.668;23.298;2023-12-07T02:55:29;94296.63;;;11.75;54.30
35676;BME280;21790;42.668;23.298;2023-12-07T02:57:54;94291.06;;;11.90;53.60
35676;BME280;21790;42.668;23.298;2023-12-07T03:00:20;94298.88;;;11.62;54.34
35676;BME280;21790;42.668;23.298;2023-12-07T03:02:47;94297.84;;;11.59;54.45
35676;BME280;21790;42.668;23.298;2023-12-07T03:05:13;94298.72;;;11.51;54.62
35676;BME280;21790;42.668;23.298;2023-12-07T03:07:38;94295.97;;;11.51;54.70
35676;BME280;21790;42.668;23.298;2023-12-07T03:10:04;94299.00;;;11.67;54.23
35676;BME280;21790;42.668;23.298;2023-12-07T03:12:29;94307.41;;;11.58;54.18
35676;BME280;21790;42.668;23.298;2023-12-07T03:14:55;94301.75;;;11.53;54.35
35676;BME280;21790;42.668;23.298;2023-12-07T03:17:20;94315.25;;;11.74;53.85
35676;BME280;21790;42.668;23.298;2023-12-07T03:19:45;94315.50;;;11.62;54.05
35676;BME280;21790;42.668;23.298;2023-12-07T03:22:10;94318.00;;;11.45;54.48
35676;BME280;21790;42.668;23.298;2023-12-07T03:24:38;94315.22;;;11.60;54.10
35676;BME280;21790;42.668;23.298;2023-12-07T03:27:04;94319.72;;;11.72;53.59
35676;BME280;21790;42.668;23.298;2023-12-07T03:29:30;94325.72;;;11.56;53.95
35676;BME280;21790;42.668;23.298;2023-12-07T03:31:55;94325.22;;;11.57;53.75
35676;BME280;21790;42.668;23.298;2023-12-07T03:34:20;94328.09;;;11.63;53.78
35676;BME280;21790;42.668;23.298;2023-12-07T03:36:46;94331.16;;;11.65;53.60
35676;BME280;21790;42.668;23.298;2023-12-07T03:39:13;94333.38;;;11.61;53.67
35676;BME280;21790;42.668;23.298;2023-12-07T03:41:38;94333.84;;;11.45;54.06
35676;BME280;21790;42.668;23.298;2023-12-07T03:44:04;94323.63;;;11.51;53.66
35676;BME280;21790;42.668;23.298;2023-12-07T03:46:29;94325.13;;;11.52;53.80
35676;BME280;21790;42.668;23.298;2023-12-07T03:48:54;94329.53;;;11.44;53.98
35676;BME280;21790;42.668;23.298;2023-12-07T03:51:20;94326.09;;;11.49;54.02
35676;BME280;21790;42.668;23.298;2023-12-07T03:53:45;94319.81;;;11.48;53.98
35676;BME280;21790;42.668;23.298;2023-12-07T03:56:10;94324.09;;;11.49;53.98
35676;BME280;21790;42.668;23.298;2023-12-07T03:58:36;94316.00;;;11.60;53.73
35676;BME280;21790;42.668;23.298;2023-12-07T04:01:01;94317.81;;;11.49;53.80
35676;BME280;21790;42.668;23.298;2023-12-07T04:03:27;94313.59;;;11.39;53.96
35676;BME280;21790;42.668;23.298;2023-12-07T04:05:52;94317.13;;;11.39;53.97
35676;BME280;21790;42.668;23.298;2023-12-07T04:08:17;94318.47;;;11.44;54.01
35676;BME280;21790;42.668;23.298;2023-12-07T04:10:43;94315.81;;;11.35;54.16
35676;BME280;21790;42.668;23.298;2023-12-07T04:13:09;94320.94;;;11.42;54.04
35676;BME280;21790;42.668;23.298;2023-12-07T04:15:34;94322.25;;;11.31;54.34
35676;BME280;21790;42.668;23.298;2023-12-07T04:17:59;94327.13;;;11.37;54.23
35676;BME280;21790;42.668;23.298;2023-12-07T04:20:25;94327.41;;;11.24;54.51
35676;BME280;21790;42.668;23.298;2023-12-07T04:22:50;94336.75;;;11.26;54.63
35676;BME280;21790;42.668;23.298;2023-12-07T04:25:16;94340.53;;;11.14;54.91
35676;BME280;21790;42.668;23.298;2023-12-07T04:27:41;94337.88;;;11.20;54.94
35676;BME280;21790;42.668;23.298;2023-12-07T04:30:06;94345.16;;;11.17;54.87
35676;BME280;21790;42.668;23.298;2023-12-07T04:32:32;94337.06;;;11.28;54.52
35676;BME280;21790;42.668;23.298;2023-12-07T04:34:57;94341.53;;;11.41;54.19
35676;BME280;21790;42.668;23.298;2023-12-07T04:37:23;94349.63;;;11.29;54.59
35676;BME280;21790;42.668;23.298;2023-12-07T04:39:48;94344.59;;;11.43;54.49
35676;BME280;21790;42.668;23.298;2023-12-07T04:42:14;94350.81;;;11.52;54.06
35676;BME280;21790;42.668;23.298;2023-12-07T04:44:39;94353.78;;;11.49;54.10
35676;BME280;21790;42.668;23.298;2023-12-07T04:47:04;94349.66;;;11.44;54.22
35676;BME280;21790;42.668;23.298;2023-12-07T04:49:30;94352.41;;;11.29;54.48
35676;BME280;21790;42.668;23.298;2023-12-07T04:51:55;94349.94;;;11.31;54.65
35676;BME280;21790;42.668;23.298;2023-12-07T04:54:21;94350.78;;;11.38;54.48
35676;BME280;21790;42.668;23.298;2023-12-07T04:56:46;94348.78;;;11.38;54.36
35676;BME280;21790;42.668;23.298;2023-12-07T04:59:11;94355.00;;;11.48;54.22
35676;BME280;21790;42.668;23.298;2023-12-07T05:01:37;94363.31;;;11.48;53.83
35676;BME280;21790;42.668;23.298;2023-12-07T05:04:03;94359.88;;;11.53;53.70
35676;BME280;21790;42.668;23.298;2023-12-07T05:06:29;94363.03;;;11.60;53.55
35676;BME280;21790;42.668;23.298;2023-12-07T05:08:54;94358.75;;;11.59;53.49
35676;BME280;21790;42.668;23.298;2023-12-07T05:11:19;94359.88;;;11.53;53.72
35676;BME280;21790;42.668;23.298;2023-12-07T05:13:45;94365.03;;;11.60;53.68
35676;BME280;21790;42.668;23.298;2023-12-07T05:16:10;94364.38;;;11.50;53.88
35676;BME280;21790;42.668;23.298;2023-12-07T05:18:36;94367.69;;;11.40;54.33
35676;BME280;21790;42.668;23.298;2023-12-07T05:21:01;94369.50;;;11.43;54.35
35676;BME280;21790;42.668;23.298;2023-12-07T05:23:27;94368.28;;;11.58;53.83
35676;BME280;21790;42.668;23.298;2023-12-07T05:25:52;94367.34;;;11.61;53.46
35676;BME280;21790;42.668;23.298;2023-12-07T05:28:18;94371.50;;;11.57;53.97
35676;BME280;21790;42.668;23.298;2023-12-07T05:30:44;94384.03;;;11.67;60.40
35676;BME280;21790;42.668;23.298;2023-12-07T05:33:10;94387.03;;;12.57;57.38
35676;BME280;21790;42.668;23.298;2023-12-07T05:35:36;94385.84;;;12.98;53.27
35676;BME280;21790;42.668;23.298;2023-12-07T05:38:02;94383.22;;;12.89;50.73
35676;BME280;21790;42.668;23.298;2023-12-07T05:40:31;94383.28;;;12.75;50.76
35676;BME280;21790;42.668;23.298;2023-12-07T05:42:57;94385.44;;;12.50;51.01
35676;BME280;21790;42.668;23.298;2023-12-07T05:45:22;94382.22;;;12.37;51.50
35676;BME280;21790;42.668;23.298;2023-12-07T05:47:47;94386.91;;;12.16;51.91
35676;BME280;21790;42.668;23.298;2023-12-07T05:50:13;94381.41;;;12.02;52.38
35676;BME280;21790;42.668;23.298;2023-12-07T05:52:38;94385.22;;;12.04;52.34
35676;BME280;21790;42.668;23.298;2023-12-07T05:55:04;94384.63;;;12.00;52.42
35676;BME280;21790;42.668;23.298;2023-12-07T05:57:32;94389.91;;;11.98;52.42
35676;BME280;21790;42.668;23.298;2023-12-07T05:59:57;94390.84;;;11.95;52.59
35676;BME280;21790;42.668;23.298;2023-12-07T06:02:22;94395.53;;;12.04;52.19
35676;BME280;21790;42.668;23.298;2023-12-07T06:04:48;94388.06;;;11.95;52.56
35676;BME280;21790;42.668;23.298;2023-12-07T06:07:13;94389.72;;;11.87;52.75
35676;BME280;21790;42.668;23.298;2023-12-07T06:09:39;94387.81;;;11.93;52.61
35676;BME280;21790;42.668;23.298;2023-12-07T06:12:04;94386.28;;;11.92;52.95
35676;BME280;21790;42.668;23.298;2023-12-07T06:14:29;94393.59;;;11.95;52.61
35676;BME280;21790;42.668;23.298;2023-12-07T06:16:55;94392.00;;;12.03;52.43
35676;BME280;21790;42.668;23.298;2023-12-07T06:19:20;94393.53;;;12.04;52.46
35676;BME280;21790;42.668;23.298;2023-12-07T06:21:47;94400.97;;;11.98;52.79
35676;BME280;21790;42.668;23.298;2023-12-07T06:24:12;94400.97;;;11.84;52.79
35676;BME280;21790;42.668;23.298;2023-12-07T06:26:39;94402.78;;;12.01;52.44
35676;BME280;21790;42.668;23.298;2023-12-07T06:29:05;94410.31;;;11.86;52.94
35676;BME280;21790;42.668;23.298;2023-12-07T06:31:32;94405.25;;;11.85;52.92
35676;BME280;21790;42.668;23.298;2023-12-07T06:33:58;94406.31;;;11.87;52.93
35676;BME280;21790;42.668;23.298;2023-12-07T06:36:25;94402.59;;;11.90;52.64
35676;BME280;21790;42.668;23.298;2023-12-07T06:38:52;94417.75;;;11.80;53.21
35676;BME280;21790;42.668;23.298;2023-12-07T06:41:17;94421.00;;;11.79;53.27
35676;BME280;21790;42.668;23.298;2023-12-07T06:43:42;94415.66;;;11.90;53.00
35676;BME280;21790;42.668;23.298;2023-12-07T06:46:09;94414.16;;;12.03;52.68
35676;BME280;21790;42.668;23.298;2023-12-07T06:48:35;94414.81;;;11.98;52.80
35676;BME280;21790;42.668;23.298;2023-12-07T06:51:00;94414.91;;;11.89;53.12
35676;BME280;21790;42.668;23.298;2023-12-07T06:53:26;94415.88;;;11.86;53.04
35676;BME280;21790;42.668;23.298;2023-12-07T06:55:51;94417.75;;;11.95;53.00
35676;BME280;21790;42.668;23.298;2023-12-07T06:58:16;94421.59;;;11.97;53.22
35676;BME280;21790;42.668;23.298;2023-12-07T07:00:42;94423.81;;;11.93;53.19
35676;BME280;21790;42.668;23.298;2023-12-07T07:03:08;94418.06;;;12.11;52.79
35676;BME280;21790;42.668;23.298;2023-12-07T07:05:35;94428.66;;;12.13;52.46
35676;BME280;21790;42.668;23.298;2023-12-07T07:08:00;94420.91;;;12.17;52.34
35676;BME280;21790;42.668;23.298;2023-12-07T07:10:26;94419.59;;;12.12;52.51
35676;BME280;21790;42.668;23.298;2023-12-07T07:12:51;94431.06;;;12.05;52.63
35676;BME280;21790;42.668;23.298;2023-12-07T07:15:17;94431.06;;;12.05;52.62
35676;BME280;21790;42.668;23.298;2023-12-07T07:17:43;94431.91;;;12.11;52.33
35676;BME280;21790;42.668;23.298;2023-12-07T07:20:09;94430.75;;;12.18;52.04
35676;BME280;21790;42.668;23.298;2023-12-07T07:22:34;94431.53;;;12.19;52.23
35676;BME280;21790;42.668;23.298;2023-12-07T07:24:59;94428.09;;;12.24;52.04
35676;BME280;21790;42.668;23.298;2023-12-07T07:27:25;94436.19;;;12.12;52.30
35676;BME280;21790;42.668;23.298;2023-12-07T07:29:50;94440.31;;;12.17;52.09
35676;BME280;21790;42.668;23.298;2023-12-07T07:32:15;94439.72;;;12.28;51.71
35676;BME280;21790;42.668;23.298;2023-12-07T07:34:41;94444.91;;;12.20;52.12
35676;BME280;21790;42.668;23.298;2023-12-07T07:37:06;94435.72;;;12.29;52.21
35676;BME280;21790;42.668;23.298;2023-12-07T07:39:34;94445.19;;;12.22;52.03
35676;BME280;21790;42.668;23.298;2023-12-07T07:42:00;94437.84;;;12.19;52.13
35676;BME280;21790;42.668;23.298;2023-12-07T07:44:25;94443.94;;;12.08;52.72
35676;BME280;21790;42.668;23.298;2023-12-07T07:46:51;94451.38;;;12.17;52.55
35676;BME280;21790;42.668;23.298;2023-12-07T07:49:16;94447.78;;;12.26;52.37
35676;BME280;21790;42.668;23.298;2023-12-07T07:51:42;94453.50;;;12.22;52.31
35676;BME280;21790;42.668;23.298;2023-12-07T07:54:07;94449.19;;;12.36;51.71
35676;BME280;21790;42.668;23.298;2023-12-07T07:56:33;94456.94;;;12.17;51.90
35676;BME280;21790;42.668;23.298;2023-12-07T07:58:59;94459.59;;;11.97;52.29
35676;BME280;21790;42.668;23.298;2023-12-07T08:01:26;94468.56;;;12.06;52.22
35676;BME280;21790;42.668;23.298;2023-12-07T08:03:52;94468.97;;;12.14;51.99
35676;BME280;21790;42.668;23.298;2023-12-07T08:06:17;94472.31;;;12.03;52.07
35676;BME280;21790;42.668;23.298;2023-12-07T08:08:45;94476.69;;;11.95;52.29
35676;BME280;21790;42.668;23.298;2023-12-07T08:11:13;94478.31;;;11.87;52.50
35676;BME280;21790;42.668;23.298;2023-12-07T08:13:41;94469.75;;;12.00;52.08
35676;BME280;21790;42.668;23.298;2023-12-07T08:16:09;94483.38;;;11.89;52.20
35676;BME280;21790;42.668;23.298;2023-12-07T08:18:35;94487.94;;;11.77;52.32
35676;BME280;21790;42.668;23.298;2023-12-07T08:21:01;94489.97;;;11.91;51.87
35676;BME280;21790;42.668;23.298;2023-12-07T08:23:26;94497.31;;;11.94;51.72
35676;BME280;21790;42.668;23.298;2023-12-07T08:25:51;94498.16;;;11.86;51.82
35676;BME280;21790;42.668;23.298;2023-12-07T08:28:17;94499.28;;;11.79;51.94
35676;BME280;21790;42.668;23.298;2023-12-07T08:30:43;94500.47;;;11.87;51.23
35676;BME280;21790;42.668;23.298;2023-12-07T08:33:09;94500.34;;;11.82;51.53
35676;BME280;21790;42.668;23.298;2023-12-07T08:35:34;94501.00;;;11.77;51.54
35676;BME280;21790;42.668;23.298;2023-12-07T08:37:59;94507.63;;;11.70;51.68
35676;BME280;21790;42.668;23.298;2023-12-07T08:40:25;94504.81;;;11.79;51.16
35676;BME280;21790;42.668;23.298;2023-12-07T08:42:50;94508.75;;;11.63;51.54
35676;BME280;21790;42.668;23.298;2023-12-07T08:45:15;94510.75;;;11.63;51.56
35676;BME280;21790;42.668;23.298;2023-12-07T08:47:42;94507.34;;;11.68;51.32
35676;BME280;21790;42.668;23.298;2023-12-07T08:50:07;94519.63;;;11.28;51.94
35676;BME280;21790;42.668;23.298;2023-12-07T08:52:34;94522.63;;;11.40;51.44
35676;BME280;21790;42.668;23.298;2023-12-07T08:55:00;94524.31;;;11.37;51.48
35676;BME280;21790;42.668;23.298;2023-12-07T08:57:25;94510.41;;;11.46;51.59
35676;BME280;21790;42.668;23.298;2023-12-07T08:59:51;94516.25;;;11.48;51.58
35676;BME280;21790;42.668;23.298;2023-12-07T09:02:16;94524.91;;;11.41;51.17
35676;BME280;21790;42.668;23.298;2023-12-07T09:04:44;94519.69;;;11.43;51.51
35676;BME280;21790;42.668;23.298;2023-12-07T09:07:09;94518.25;;;11.48;51.13
35676;BME280;21790;42.668;23.298;2023-12-07T09:09:36;94522.44;;;11.43;51.31
35676;BME280;21790;42.668;23.298;2023-12-07T09:12:01;94517.84;;;11.40;51.03
35676;BME280;21790;42.668;23.298;2023-12-07T09:14:27;94513.38;;;11.43;51.11
35676;BME280;21790;42.668;23.298;2023-12-07T09:16:52;94520.38;;;11.53;50.91
35676;BME280;21790;42.668;23.298;2023-12-07T09:19:20;94521.66;;;11.43;51.09
35676;BME280;21790;42.668;23.298;2023-12-07T09:21:45;94518.78;;;11.37;51.22
35676;BME280;21790;42.668;23.298;2023-12-07T09:24:11;94520.78;;;11.37;51.08
35676;BME280;21790;42.668;23.298;2023-12-07T09:26:36;94529.19;;;11.18;51.29
35676;BME280;21790;42.668;23.298;2023-12-07T09:29:02;94524.25;;;11.22;51.34
35676;BME280;21790;42.668;23.298;2023-12-07T09:31:27;94517.56;;;11.38;51.17
35676;BME280;21790;42.668;23.298;2023-12-07T09:33:53;94514.75;;;11.23;50.86
35676;BME280;21790;42.668;23.298;2023-12-07T09:36:18;94524.66;;;11.30;50.67
35676;BME280;21790;42.668;23.298;2023-12-07T09:38:47;94524.25;;;11.22;50.78
35676;BME280;21790;42.668;23.298;2023-12-07T09:41:12;94523.06;;;11.14;50.83
35676;BME280;21790;42.668;23.298;2023-12-07T09:43:38;94527.06;;;11.13;50.95
35676;BME280;21790;42.668;23.298;2023-12-07T09:46:04;94523.97;;;11.20;50.76
35676;BME280;21790;42.668;23.298;2023-12-07T09:48:31;94521.13;;;11.06;50.93
35676;BME280;21790;42.668;23.298;2023-12-07T09:50:56;94522.88;;;10.94;51.20
35676;BME280;21790;42.668;23.298;2023-12-07T09:53:24;94528.84;;;10.93;51.07
35676;BME280;21790;42.668;23.298;2023-12-07T09:55:49;94526.59;;;10.82;51.31
35676;BME280;21790;42.668;23.298;2023-12-07T09:58:15;94532.44;;;10.84;51.49
35676;BME280;21790;42.668;23.298;2023-12-07T10:00:40;94526.00;;;10.78;51.38
35676;BME280;21790;42.668;23.298;2023-12-07T10:03:06;94528.59;;;10.81;51.19
35676;BME280;21790;42.668;23.298;2023-12-07T10:05:34;94531.53;;;10.78;51.40
35676;BME280;21790;42.668;23.298;2023-12-07T10:07:59;94526.84;;;10.60;51.73
35676;BME280;21790;42.668;23.298;2023-12-07T10:10:25;94526.97;;;10.66;51.92
35676;BME280;21790;42.668;23.298;2023-12-07T10:12:56;94529.03;;;10.38;51.57
35676;BME280;21790;42.668;23.298;2023-12-07T10:15:24;94523.06;;;10.39;52.25
35676;BME280;21790;42.668;23.298;2023-12-07T10:17:52;94529.22;;;10.34;51.96
35676;BME280;21790;42.668;23.298;2023-12-07T10:20:19;94521.56;;;9.93;52.65
35676;BME280;21790;42.668;23.298;2023-12-07T10:22:48;94528.91;;;10.05;52.41
35676;BME280;21790;42.668;23.298;2023-12-07T10:25:14;94523.09;;;10.12;52.29
35676;BME280;21790;42.668;23.298;2023-12-07T10:27:42;94520.06;;;10.19;52.26
35676;BME280;21790;42.668;23.298;2023-12-07T10:30:11;94527.25;;;10.07;52.41
35676;BME280;21790;42.668;23.298;2023-12-07T10:32:40;94525.88;;;9.85;52.51
35676;BME280;21790;42.668;23.298;2023-12-07T10:35:06;94520.19;;;10.06;52.25
35676;BME280;21790;42.668;23.298;2023-12-07T10:37:32;94522.03;;;10.00;52.04
35676;BME280;21790;42.668;23.298;2023-12-07T10:39:57;94523.13;;;9.76;52.71
35676;BME280;21790;42.668;23.298;2023-12-07T10:42:23;94526.03;;;9.81;52.93
35676;BME280;21790;42.668;23.298;2023-12-07T10:44:49;94524.97;;;9.97;52.54
35676;BME280;21790;42.668;23.298;2023-12-07T10:47:15;94532.31;;;10.00;52.15
35676;BME280;21790;42.668;23.298;2023-12-07T10:49:43;94516.97;;;9.99;52.07
35676;BME280;21790;42.668;23.298;2023-12-07T10:52:12;94524.63;;;9.77;52.81
35676;BME280;21790;42.668;23.298;2023-12-07T10:54:41;94515.16;;;9.87;52.69
35676;BME280;21790;42.668;23.298;2023-12-07T10:57:09;94528.94;;;9.96;52.07
35676;BME280;21790;42.668;23.298;2023-12-07T10:59:36;94521.25;;;10.00;52.06
35676;BME280;21790;42.668;23.298;2023-12-07T11:02:02;94524.91;;;10.15;52.01
35676;BME280;21790;42.668;23.298;2023-12-07T11:04:28;94523.09;;;10.12;51.76
35676;BME280;21790;42.668;23.298;2023-12-07T11:06:54;94526.16;;;10.05;51.84
35676;BME280;21790;42.668;23.298;2023-12-07T11:09:23;94532.31;;;10.18;51.76
35676;BME280;21790;42.668;23.298;2023-12-07T11:11:56;94527.84;;;10.12;51.47
35676;BME280;21790;42.668;23.298;2023-12-07T11:14:23;94523.72;;;9.89;51.96
35676;BME280;21790;42.668;23.298;2023-12-07T11:16:49;94531.72;;;9.87;52.52
35676;BME280;21790;42.668;23.298;2023-12-07T11:22:01;94520.97;;;9.89;52.46
35676;BME280;21790;42.668;23.298;2023-12-07T11:24:27;94524.94;;;10.06;52.05
35676;BME280;21790;42.668;23.298;2023-12-07T11:26:53;94529.09;;;10.01;52.23
35676;BME280;21790;42.668;23.298;2023-12-07T11:29:21;94528.63;;;10.12;52.02
35676;BME280;21790;42.668;23.298;2023-12-07T11:31:49;94519.09;;;10.04;52.04
35676;BME280;21790;42.668;23.298;2023-12-07T11:34:33;94525.88;;;10.03;51.99
35676;BME280;21790;42.668;23.298;2023-12-07T11:36:58;94525.25;;;9.99;52.13
35676;BME280;21790;42.668;23.298;2023-12-07T11:39:24;94513.75;;;10.00;52.08
35676;BME280;21790;42.668;23.298;2023-12-07T11:41:53;94507.63;;;9.96;51.94
35676;BME280;21790;42.668;23.298;2023-12-07T11:44:19;94506.41;;;9.88;52.10
35676;BME280;21790;42.668;23.298;2023-12-07T11:46:44;94509.31;;;9.94;51.91
35676;BME280;21790;42.668;23.298;2023-12-07T11:49:09;94513.44;;;9.89;52.86
35676;BME280;21790;42.668;23.298;2023-12-07T11:51:35;94502.25;;;9.65;53.44
35676;BME280;21790;42.668;23.298;2023-12-07T11:54:01;94506.56;;;9.76;52.97
35676;BME280;21790;42.668;23.298;2023-12-07T11:56:26;94510.06;;;9.94;52.62
35676;BME280;21790;42.668;23.298;2023-12-07T11:58:52;94507.91;;;9.98;52.35
35676;BME280;21790;42.668;23.298;2023-12-07T12:01:17;94507.47;;;10.00;52.45
35676;BME280;21790;42.668;23.298;2023-12-07T12:03:43;94513.00;;;10.09;52.03
35676;BME280;21790;42.668;23.298;2023-12-07T12:06:08;94502.38;;;9.98;52.45
35676;BME280;21790;42.668;23.298;2023-12-07T12:08:35;94505.00;;;10.11;51.71
35676;BME280;21790;42.668;23.298;2023-12-07T12:11:01;94513.91;;;10.06;52.14
35676;BME280;21790;42.668;23.298;2023-12-07T12:13:31;94506.97;;;10.11;52.40
35676;BME280;21790;42.668;23.298;2023-12-07T12:15:58;94505.00;;;10.20;51.95
35676;BME280;21790;42.668;23.298;2023-12-07T12:18:23;94512.22;;;10.08;51.81
35676;BME280;21790;42.668;23.298;2023-12-07T12:20:51;94507.75;;;10.11;51.95
35676;BME280;21790;42.668;23.298;2023-12-07T12:23:17;94507.78;;;10.02;51.96
35676;BME280;21790;42.668;23.298;2023-12-07T12:25:42;94509.63;;;9.96;52.01
35676;BME280;21790;42.668;23.298;2023-12-07T12:28:08;94512.66;;;10.07;51.56
35676;BME280;21790;42.668;23.298;2023-12-07T12:30:33;94507.75;;;9.93;51.79
35676;BME280;21790;42.668;23.298;2023-12-07T12:32:59;94512.06;;;9.94;52.10
35676;BME280;21790;42.668;23.298;2023-12-07T12:35:27;94511.75;;;9.83;52.50
35676;BME280;21790;42.668;23.298;2023-12-07T12:37:53;94509.31;;;9.85;52.26
35676;BME280;21790;42.668;23.298;2023-12-07T12:40:20;94510.53;;;9.84;52.56
35676;BME280;21790;42.668;23.298;2023-12-07T12:42:47;94508.53;;;9.93;52.36
35676;BME280;21790;42.668;23.298;2023-12-07T12:45:16;94511.16;;;9.97;52.56
35676;BME280;21790;42.668;23.298;2023-12-07T12:47:42;94513.00;;;9.91;52.32